Time;durP1;ratioP1;P1;durP2;ratioP2;P2;SDS_P1;SDS_P2;PMS_P1;PMS_P2;Temp;Humidity;BMP_temperature;BMP_pressure;BME280_temperature;BME280_humidity;BME280_pressure;Samples;Min_cycle;Max_cycle;Signal;HPM_P1;HPM_P2
2023/01/16 06:00:11;;;;;;;;;1.00;0.00;;;;;-147.14;100.00;58812.66;6170404;22;45589;31
2023/01/16 06:02:37;;;;;;;;;0.00;0.00;;;;;-147.14;100.00;58812.66;6155786;23;45369;-54
2023/01/16 06:05:02;;;;;;;;;0.33;0.00;;;;;-147.14;100.00;58812.66;6154411;23;60369;-54
2023/01/16 06:07:28;;;;;;;;;0.33;0.00;;;;;-147.14;100.00;58812.66;6154372;23;45961;-55
2023/01/16 06:09:53;;;;;;;;;0.67;0.00;;;;;-147.14;100.00;58812.66;6154307;23;49093;-53
2023/01/16 06:12:19;;;;;;;;;0.00;0.00;;;;;-147.14;100.00;58812.66;6154990;23;45147;-55
2023/01/16 06:14:45;;;;;;;;;1.00;0.00;;;;;-147.14;100.00;58812.66;6155371;23;45242;-53
2023/01/16 06:17:14;;;;;;;;;0.00;0.00;;;;;-147.14;100.00;58812.66;6155424;23;45539;-54
2023/01/16 06:19:39;;;;;;;;;1.00;0.00;;;;;-147.14;100.00;58812.66;6128713;23;45923;-56
2023/01/16 06:22:04;;;;;;;;;1.00;0.00;;;;;-147.14;100.00;58812.66;6155362;23;45205;-56
2023/01/16 06:24:30;;;;;;;;;0.00;0.00;;;;;-147.14;100.00;58812.66;6155398;23;45323;-56
2023/01/16 06:26:55;;;;;;;;;1.00;1.00;;;;;-147.14;100.00;58812.66;6155112;23;46837;-56
2023/01/16 06:29:20;;;;;;;;;0.00;0.00;;;;;-147.14;100.00;58812.66;6156252;23;45390;-56
2023/01/16 06:31:46;;;;;;;;;1.00;1.00;;;;;-147.14;100.00;58812.66;6152962;23;59474;-56
2023/01/16 06:34:11;;;;;;;;;0.00;0.00;;;;;-147.14;100.00;58812.66;6153345;23;45367;-56
2023/01/16 06:36:37;;;;;;;;;0.00;0.00;;;;;-147.14;100.00;58812.66;6154007;23;47236;-55
2023/01/16 06:39:02;;;;;;;;;2.67;0.00;;;;;-147.14;100.00;58812.66;6153344;23;45421;-57
2023/01/16 06:41:27;;;;;;;;;0.00;0.00;;;;;-147.14;100.00;58812.66;6156200;23;45431;-57
2023/01/16 06:43:53;;;;;;;;;0.00;0.00;;;;;-147.14;100.00;58812.66;6154357;23;57433;-58
2023/01/16 06:46:18;;;;;;;;;0.33;0.33;;;;;-147.14;100.00;58812.66;6154668;23;46175;-58
2023/01/16 06:48:44;;;;;;;;;0.00;0.00;;;;;-147.14;100.00;58812.66;6154277;23;63795;-55
2023/01/16 06:51:10;;;;;;;;;4.67;0.00;;;;;-147.14;100.00;58812.66;6154775;23;45357;-55
2023/01/16 06:53:36;;;;;;;;;0.33;0.00;;;;;-147.14;100.00;58812.66;6155347;23;45274;-56
2023/01/16 06:56:02;;;;;;;;;0.00;0.00;;;;;-147.14;100.00;58812.66;6154171;23;46205;-56
2023/01/16 06:58:27;;;;;;;;;1.00;0.00;;;;;-147.14;100.00;58812.66;6155421;23;45222;-55
2023/01/16 07:00:53;;;;;;;;;0.33;0.00;;;;;-147.14;100.00;58812.66;6162754;23;58478;-57
2023/01/16 07:03:20;;;;;;;;;0.00;0.00;;;;;-147.14;100.00;58812.66;6184685;23;45353;-57
2023/01/16 07:05:46;;;;;;;;;0.33;0.33;;;;;-147.14;100.00;58812.66;6184165;23;45309;-56
2023/01/16 07:08:11;;;;;;;;;1.00;0.00;;;;;-147.14;100.00;58812.66;6184507;23;45361;-57
2023/01/16 07:10:37;;;;;;;;;0.00;0.00;;;;;-147.14;100.00;58812.66;6185032;23;51251;-57
2023/01/16 07:13:02;;;;;;;;;0.33;0.33;;;;;-147.14;100.00;58812.66;6184429;23;45613;-58
2023/01/16 07:23:47;;;;;;;;;0.00;0.00;;;;;-147.14;100.00;58812.66;6159925;23;45318;-58
2023/01/16 07:26:13;;;;;;;;;0.00;0.00;;;;;-147.14;100.00;58812.66;6157066;23;46038;-58
2023/01/16 07:28:39;;;;;;;;;2.00;0.00;;;;;-147.14;100.00;58812.66;6184715;23;45357;-56
2023/01/16 07:31:05;;;;;;;;;2.00;0.00;;;;;-147.14;100.00;58812.66;6181239;23;51581;-58
2023/01/16 07:33:30;;;;;;;;;0.00;0.00;;;;;-147.14;100.00;58812.66;6184443;23;45528;-58
2023/01/16 07:35:56;;;;;;;;;0.00;0.00;;;;;-147.14;100.00;58812.66;6183924;23;60879;-57
2023/01/16 07:38:21;;;;;;;;;0.00;0.00;;;;;-147.14;100.00;58812.66;6184550;23;45310;-56
2023/01/16 07:40:47;;;;;;;;;4.00;0.00;;;;;-147.14;100.00;58812.66;6182110;23;45273;-57
2023/01/16 07:43:12;;;;;;;;;2.00;0.00;;;;;-147.14;100.00;58812.66;6183276;23;62962;-58
2023/01/16 07:45:37;;;;;;;;;1.00;1.00;;;;;-147.14;100.00;58812.66;6181771;23;45901;-57
2023/01/16 07:48:03;;;;;;;;;0.00;0.00;;;;;-147.14;100.00;58812.66;6183571;23;45326;-58
2023/01/16 07:50:28;;;;;;;;;0.00;0.00;;;;;-147.14;100.00;58812.66;6184259;23;45224;-56
2023/01/16 07:52:54;;;;;;;;;0.00;0.00;;;;;-147.14;100.00;58812.66;6184327;23;45147;-57
2023/01/16 07:55:19;;;;;;;;;0.00;0.00;;;;;-147.14;100.00;58812.66;6184381;23;45596;-57
2023/01/16 07:57:45;;;;;;;;;0.67;0.67;;;;;-147.14;100.00;58812.66;6184038;23;54184;-57
2023/01/16 08:00:11;;;;;;;;;0.00;0.00;;;;;-147.14;100.00;58812.66;6183463;23;45195;-57
2023/01/16 08:02:37;;;;;;;;;0.00;0.00;;;;;-147.14;100.00;58812.66;6184745;23;45461;-60
2023/01/16 08:05:03;;;;;;;;;0.00;0.00;;;;;-147.14;100.00;58812.66;6157112;23;46231;-56
2023/01/16 08:07:28;;;;;;;;;0.00;0.00;;;;;-147.14;100.00;58812.66;6183065;23;45695;-57
2023/01/16 08:09:54;;;;;;;;;0.00;0.00;;;;;-147.14;100.00;58812.66;6182305;23;58786;-58
2023/01/16 08:12:19;;;;;;;;;0.00;0.00;;;;;-147.14;100.00;58812.66;6184060;23;45376;-57
2023/01/16 08:14:44;;;;;;;;;0.00;0.00;;;;;-147.14;100.00;58812.66;6184177;23;55526;-56
2023/01/16 08:17:10;;;;;;;;;0.00;0.00;;;;;-147.14;100.00;58812.66;6184805;23;45226;-57
2023/01/16 08:19:35;;;;;;;;;0.00;0.00;;;;;-147.14;100.00;58812.66;6183318;23;60638;-59
2023/01/16 08:22:02;;;;;;;;;1.00;0.00;;;;;-147.14;100.00;58812.66;6184185;23;60604;-58
2023/01/16 08:24:27;;;;;;;;;1.67;0.00;;;;;-147.14;100.00;58812.66;6184620;23;45997;-57
2023/01/16 08:26:52;;;;;;;;;0.00;0.00;;;;;-147.14;100.00;58812.66;6184508;23;45320;-58
2023/01/16 08:29:18;;;;;;;;;0.67;0.00;;;;;-147.14;100.00;58812.66;6184708;23;45274;-57
2023/01/16 08:31:43;;;;;;;;;0.00;0.00;;;;;-147.14;100.00;58812.66;6184965;23;45497;-58
2023/01/16 08:34:09;;;;;;;;;2.00;0.00;;;;;-147.14;100.00;58812.66;6183690;23;66115;-57
2023/01/16 08:36:35;;;;;;;;;0.00;0.00;;;;;-147.14;100.00;58812.66;6183318;23;45208;-56
2023/01/16 08:39:00;;;;;;;;;0.00;0.00;;;;;-147.14;100.00;58812.66;6181625;23;45414;-59
2023/01/16 08:52:30;;;;;;;;;0.00;0.00;;;;;-147.14;100.00;58812.66;6183674;23;45361;-59
2023/01/16 08:54:57;;;;;;;;;0.00;0.00;;;;;-147.14;100.00;58812.66;6155717;23;46145;-59
2023/01/16 08:57:23;;;;;;;;;1.00;0.00;;;;;-147.14;100.00;58812.66;6183956;23;45407;-59
2023/01/16 08:59:48;;;;;;;;;0.00;0.00;;;;;-147.14;100.00;58812.66;6184142;23;45222;-59
2023/01/16 09:02:14;;;;;;;;;0.00;0.00;;;;;-147.14;100.00;58812.66;6181264;23;45398;-60
2023/01/16 09:04:40;;;;;;;;;0.67;0.00;;;;;-147.14;100.00;58812.66;6183151;23;47142;-59
2023/01/16 09:07:05;;;;;;;;;1.00;0.00;;;;;-147.14;100.00;58812.66;6182964;23;45289;-59
2023/01/16 09:09:31;;;;;;;;;0.00;0.00;;;;;-147.14;100.00;58812.66;6182962;23;61635;-59
2023/01/16 09:14:41;;;;;;;;;0.00;0.00;;;;;-147.14;100.00;58812.66;6183853;23;45292;-59
2023/01/16 09:17:07;;;;;;;;;0.00;0.00;;;;;-147.14;100.00;58812.66;6183062;23;61490;-59
2023/01/16 09:19:33;;;;;;;;;1.00;0.00;;;;;-147.14;100.00;58812.66;6184504;23;45335;-59
2023/01/16 09:21:59;;;;;;;;;0.00;0.00;;;;;-147.14;100.00;58812.66;6184692;23;45511;-59
2023/01/16 09:24:24;;;;;;;;;0.00;0.00;;;;;-147.14;100.00;58812.66;6185411;23;45316;-59
2023/01/16 09:26:50;;;;;;;;;0.00;0.00;;;;;-147.14;100.00;58812.66;6184327;23;45422;-59
2023/01/16 09:29:15;;;;;;;;;1.00;0.00;;;;;-147.14;100.00;58812.66;6158073;23;51054;-59
2023/01/16 09:31:40;;;;;;;;;0.00;0.00;;;;;-147.14;100.00;58812.66;6184755;23;57111;-59
2023/01/16 09:34:06;;;;;;;;;2.00;0.00;;;;;-147.14;100.00;58812.66;6184263;23;65009;-59
2023/01/16 09:36:31;;;;;;;;;0.00;0.00;;;;;-147.14;100.00;58812.66;6184550;23;59293;-59
2023/01/16 09:38:56;;;;;;;;;0.00;0.00;;;;;-147.14;100.00;58812.66;6183880;23;58084;-59
2023/01/16 09:44:09;;;;;;;;;0.00;0.00;;;;;-147.14;100.00;58812.66;6162008;23;45578;-60
2023/01/16 09:46:50;;;;;;;;;0.00;0.00;;;;;-147.14;100.00;58812.66;6158574;23;45359;-59
2023/01/16 09:49:19;;;;;;;;;0.00;0.00;;;;;-147.14;100.00;58812.66;6157949;23;45274;-59
2023/01/16 09:58:35;;;;;;;;;0.00;0.00;;;;;-147.14;100.00;58812.66;6158646;23;45458;-59
2023/01/16 10:00:13;;;;;;;;;0.00;0.00;;;;;-147.14;100.00;58812.66;6160304;23;45319;-57
2023/01/16 10:02:40;;;;;;;;;0.00;0.00;;;;;-147.14;100.00;58812.66;6158135;23;45653;-59
2023/01/16 10:05:06;;;;;;;;;1.67;0.00;;;;;-147.14;100.00;58812.66;6156818;23;47145;-59
2023/01/16 10:08:19;;;;;;;;;0.00;0.00;;;;;-147.14;100.00;58812.66;6158229;23;45513;-59
2023/01/16 10:11:11;;;;;;;;;1.00;1.00;;;;;-147.14;100.00;58812.66;6092145;23;45328;-59
2023/01/16 10:13:55;;;;;;;;;0.00;0.00;;;;;-147.14;100.00;58812.66;6080579;23;45298;-59
2023/01/16 10:16:46;;;;;;;;;0.00;0.00;;;;;-147.14;100.00;58812.66;6135861;23;46752;-59
2023/01/16 10:19:15;;;;;;;;;1.00;0.00;;;;;-147.14;100.00;58812.66;6179178;23;45377;-59
2023/01/16 10:21:59;;;;;;;;;1.00;1.00;;;;;-147.14;100.00;58812.66;6185059;23;45329;-58
2023/01/16 10:24:37;;;;;;;;;1.67;1.00;;;;;-147.14;100.00;58812.66;6183594;23;45354;-59
2023/01/16 10:27:41;;;;;;;;;2.00;1.00;;;;;-147.14;100.00;58812.66;6183904;23;46324;-59
2023/01/16 10:30:16;;;;;;;;;2.00;1.00;;;;;-147.14;100.00;58812.66;6066677;23;45328;-59
2023/01/16 10:32:50;;;;;;;;;2.67;2.00;;;;;-147.14;100.00;58812.66;6149897;23;45557;-59
2023/01/16 10:35:25;;;;;;;;;4.00;2.00;;;;;-147.14;100.00;58812.66;6184011;23;45282;-60
2023/01/16 10:37:50;;;;;;;;;1.00;1.00;;;;;-147.14;100.00;58812.66;6157444;23;46318;-58
2023/01/16 10:40:17;;;;;;;;;0.00;0.00;;;;;-147.14;100.00;58812.66;6154577;23;67692;-58
2023/01/16 10:51:02;;;;;;;;;0.00;0.00;;;;;-147.14;100.00;58812.66;6181238;23;45421;-58
2023/01/16 10:56:03;;;;;;;;;0.00;0.00;;;;;-147.14;100.00;58812.66;6223349;22;45603;-59
2023/01/16 10:58:31;;;;;;;;;0.00;0.00;;;;;-147.14;100.00;58812.66;6239967;22;45927;-59
2023/01/16 11:01:01;;;;;;;;;0.00;0.00;;;;;-147.14;100.00;58812.66;6242372;22;45605;-59
2023/01/16 11:03:39;;;;;;;;;0.00;0.00;;;;;-147.14;100.00;58812.66;6240662;22;45323;-58
2023/01/16 11:06:06;;;;;;;;;0.00;0.00;;;;;-147.14;100.00;58812.66;6240509;22;45390;-58
2023/01/16 11:08:32;;;;;;;;;0.00;0.00;;;;;-147.14;100.00;58812.66;6242697;22;45414;-58
2023/01/16 11:10:58;;;;;;;;;1.00;0.00;;;;;-147.14;100.00;58812.66;6242500;22;65065;-58
2023/01/16 11:18:57;;;;;;;;;0.00;0.00;;;;;-147.14;100.00;58812.66;6245039;22;45810;-57
2023/01/16 11:21:29;;;;;;;;;0.00;0.00;;;;;-147.14;100.00;58812.66;6243614;22;45406;-59
2023/01/16 11:23:59;;;;;;;;;0.00;0.00;;;;;-147.14;100.00;58812.66;6245074;22;45546;-57
2023/01/16 11:26:26;;;;;;;;;1.00;0.00;;;;;-147.14;100.00;58812.66;6245653;22;45386;-58
2023/01/16 11:28:53;;;;;;;;;1.00;0.00;;;;;-147.14;100.00;58812.66;6218298;22;45391;-59
2023/01/16 11:31:22;;;;;;;;;0.00;0.00;;;;;-147.14;100.00;58812.66;6218328;22;45310;-59
2023/01/16 11:33:59;;;;;;;;;3.00;0.00;;;;;-147.14;100.00;58812.66;6245527;22;45338;-58
2023/01/16 11:36:27;;;;;;;;;0.00;0.00;;;;;-147.14;100.00;58812.66;6219055;22;45403;-58
2023/01/16 11:38:53;;;;;;;;;0.00;0.00;;;;;-147.14;100.00;58812.66;6217803;22;46230;-59
2023/01/16 11:41:23;;;;;;;;;0.33;0.00;;;;;-147.14;100.00;58812.66;6243917;22;45389;-59
2023/01/16 11:47:13;;;;;;;;;2.00;0.00;;;;;-147.14;100.00;58812.66;6159429;23;45627;-59
2023/01/16 11:49:41;;;;;;;;;0.00;0.00;;;;;-147.14;100.00;58812.66;6214551;22;45277;-59
2023/01/16 11:52:13;;;;;;;;;0.00;0.00;;;;;-147.14;100.00;58812.66;6245388;22;45630;-58
2023/01/16 11:54:38;;;;;;;;;0.00;0.00;;;;;-147.14;100.00;58812.66;6218264;22;45546;-58
2023/01/16 11:57:41;;;;;;;;;0.00;0.00;;;;;-147.14;100.00;58812.66;6245268;22;60687;-60
2023/01/16 12:00:16;;;;;;;;;0.00;0.00;;;;;-147.14;100.00;58812.66;6244268;22;46185;-58
2023/01/16 12:02:48;;;;;;;;;0.00;0.00;;;;;-147.14;100.00;58812.66;6242807;22;45669;-57
2023/01/16 12:08:21;;;;;;;;;0.00;0.00;;;;;-147.14;100.00;58812.66;6245502;22;45295;-57
2023/01/16 12:11:04;;;;;;;;;1.00;1.00;;;;;-147.14;100.00;58812.66;6219947;22;45292;-59
2023/01/16 12:17:04;;;;;;;;;0.00;0.00;;;;;-147.14;100.00;58812.66;6246281;22;45311;-58
2023/01/16 12:20:04;;;;;;;;;0.67;0.00;;;;;-147.14;100.00;58812.66;6246157;22;45243;-58
2023/01/16 12:22:48;;;;;;;;;1.00;0.00;;;;;-147.14;100.00;58812.66;6217315;22;46045;-57
2023/01/16 12:25:41;;;;;;;;;0.00;0.00;;;;;-147.14;100.00;58812.66;6243920;22;45251;-57
2023/01/16 12:28:25;;;;;;;;;0.00;0.00;;;;;-147.14;100.00;58812.66;6218443;22;45742;-57
2023/01/16 12:30:57;;;;;;;;;0.00;0.00;;;;;-147.14;100.00;58812.66;6245882;22;45340;-56
2023/01/16 12:33:32;;;;;;;;;0.00;0.00;;;;;-147.14;100.00;58812.66;6218203;22;47342;-57
2023/01/16 12:36:27;;;;;;;;;0.00;0.00;;;;;-147.14;100.00;58812.66;6219123;22;45381;-57
2023/01/16 12:39:18;;;;;;;;;0.33;0.33;;;;;-147.14;100.00;58812.66;6217954;22;45273;-58
2023/01/16 12:44:49;;;;;;;;;1.00;1.00;;;;;-147.14;100.00;58812.66;6245789;22;45710;-57
2023/01/16 12:47:26;;;;;;;;;2.00;0.33;;;;;-147.14;100.00;58812.66;6245656;22;45288;-58
2023/01/16 12:50:07;;;;;;;;;0.00;0.00;;;;;-147.14;100.00;58812.66;6245872;22;45412;-58
2023/01/16 12:52:55;;;;;;;;;1.00;0.00;;;;;-147.14;100.00;58812.66;6218513;22;45358;-57
2023/01/16 12:55:52;;;;;;;;;1.00;0.33;;;;;-147.14;100.00;58812.66;6246516;22;45276;-57
2023/01/16 12:58:20;;;;;;;;;2.00;0.00;;;;;-147.14;100.00;58812.66;6216255;22;45795;-58
2023/01/16 13:01:07;;;;;;;;;1.00;1.00;;;;;-147.14;100.00;58812.66;6214302;22;45312;-58
2023/01/16 13:03:41;;;;;;;;;1.00;1.00;;;;;-147.14;100.00;58812.66;6244856;22;45206;-58
2023/01/16 13:06:11;;;;;;;;;1.00;1.00;;;;;-147.14;100.00;58812.66;6244157;22;45343;-58
2023/01/16 13:08:41;;;;;;;;;1.00;1.00;;;;;-147.14;100.00;58812.66;6245463;22;45354;-57
2023/01/16 13:14:07;;;;;;;;;1.00;1.00;;;;;-147.14;100.00;58812.66;6222456;22;45363;-58
2023/01/16 13:16:46;;;;;;;;;2.00;2.00;;;;;-147.14;100.00;58812.66;6218597;22;46006;-57
2023/01/16 13:19:15;;;;;;;;;0.67;0.67;;;;;-147.14;100.00;58812.66;6217578;22;45612;-58
2023/01/16 13:21:59;;;;;;;;;9.00;2.00;;;;;-147.14;100.00;58812.66;6245521;22;45404;-58
2023/01/16 13:24:40;;;;;;;;;5.00;2.00;;;;;-147.14;100.00;58812.66;6244709;22;45315;-58
2023/01/16 13:27:16;;;;;;;;;3.00;1.00;;;;;-147.14;100.00;58812.66;6217632;22;46082;-58
2023/01/16 13:29:48;;;;;;;;;3.00;1.00;;;;;-147.14;100.00;58812.66;6218255;22;45218;-58
2023/01/16 13:32:19;;;;;;;;;1.33;1.00;;;;;-147.14;100.00;58812.66;6218119;22;45666;-58
2023/01/16 13:34:48;;;;;;;;;1.00;1.00;;;;;-147.14;100.00;58812.66;6245128;22;45283;-59
2023/01/16 13:37:20;;;;;;;;;3.00;1.67;;;;;-147.14;100.00;58812.66;6217323;22;46547;-58
2023/01/16 13:40:02;;;;;;;;;2.33;1.00;;;;;-147.14;100.00;58812.66;6244421;22;45304;-58
2023/01/16 13:42:29;;;;;;;;;2.00;0.33;;;;;-147.14;100.00;58812.66;6245286;22;45203;-58
2023/01/16 13:47:43;;;;;;;;;3.00;0.00;;;;;-147.14;100.00;58812.66;6245826;22;45323;-58
2023/01/16 13:50:22;;;;;;;;;5.00;2.67;;;;;-147.14;100.00;58812.66;6245477;22;45307;-58
2023/01/16 13:52:48;;;;;;;;;3.00;1.00;;;;;-147.14;100.00;58812.66;6245681;22;45192;-59
2023/01/16 13:55:33;;;;;;;;;2.00;0.33;;;;;-147.14;100.00;58812.66;6244671;22;45338;-58
2023/01/16 13:58:21;;;;;;;;;1.00;1.00;;;;;-147.14;100.00;58812.66;6217869;22;46175;-58
2023/01/16 14:00:46;;;;;;;;;1.00;1.00;;;;;-147.14;100.00;58812.66;6246910;22;45239;-58
2023/01/16 14:03:24;;;;;;;;;2.00;2.00;;;;;-147.14;100.00;58812.66;6215587;22;45615;-59
2023/01/16 14:06:11;;;;;;;;;3.00;1.67;;;;;-147.14;100.00;58812.66;6245199;22;45254;-58
2023/01/16 14:12:10;;;;;;;;;4.00;1.00;;;;;-147.14;100.00;58812.66;6245777;22;45605;-59
2023/01/16 14:17:30;;;;;;;;;1.00;1.00;;;;;-147.14;100.00;58812.66;6239095;22;45377;-59
2023/01/16 14:20:02;;;;;;;;;3.00;1.00;;;;;-147.14;100.00;58812.66;6244013;22;47108;-59
2023/01/16 14:25:07;;;;;;;;;2.00;1.00;;;;;-147.14;100.00;58812.66;6217588;22;45270;-58
2023/01/16 14:27:41;;;;;;;;;1.00;0.67;;;;;-147.14;100.00;58812.66;6244214;22;45483;-57
2023/01/16 14:30:19;;;;;;;;;4.00;1.33;;;;;-147.14;100.00;58812.66;6217912;22;45281;-57
2023/01/16 14:32:55;;;;;;;;;1.00;1.00;;;;;-147.14;100.00;58812.66;6243130;22;45348;-58
2023/01/16 14:35:24;;;;;;;;;3.00;2.00;;;;;-147.14;100.00;58812.66;6217927;22;45368;-59
2023/01/16 14:37:58;;;;;;;;;1.33;0.00;;;;;-147.14;100.00;58812.66;6218134;22;45305;-57
2023/01/16 14:55:13;;;;;;;;;2.00;1.00;;;;;-147.14;100.00;58812.66;6245001;22;45263;-57
2023/01/16 14:55:21;;;;;;;;;2.00;1.33;;;;;-147.14;100.00;58812.66;6243567;22;45382;-58
2023/01/16 14:57:48;;;;;;;;;2.00;1.00;;;;;-147.14;100.00;58812.66;6216417;22;45315;-56
2023/01/16 15:00:18;;;;;;;;;1.00;1.00;;;;;-147.14;100.00;58812.66;6245226;22;45300;-58
2023/01/16 15:02:49;;;;;;;;;1.00;1.00;;;;;-147.14;100.00;58812.66;6217704;22;46201;-58
2023/01/16 15:05:25;;;;;;;;;1.33;1.33;;;;;-147.14;100.00;58812.66;6217177;22;45342;-58
2023/01/16 15:07:55;;;;;;;;;0.00;0.00;;;;;-147.14;100.00;58812.66;6220067;22;45340;-57
2023/01/16 15:10:29;;;;;;;;;5.00;3.33;;;;;-147.14;100.00;58812.66;6218603;22;45362;-57
2023/01/16 15:13:12;;;;;;;;;1.00;1.00;;;;;-147.14;100.00;58812.66;6217843;22;46317;-58
2023/01/16 15:15:43;;;;;;;;;2.00;2.00;;;;;-147.14;100.00;58812.66;6246194;22;45183;-58
2023/01/16 15:23:41;;;;;;;;;1.00;1.00;;;;;-147.14;100.00;58812.66;6222493;22;45384;-58
2023/01/16 15:26:19;;;;;;;;;3.67;3.00;;;;;-147.14;100.00;58812.66;6244659;22;49896;-58
2023/01/16 15:29:09;;;;;;;;;1.33;1.33;;;;;-147.14;100.00;58812.66;6218277;22;45318;-58
2023/01/16 15:31:47;;;;;;;;;2.00;2.00;;;;;-147.14;100.00;58812.66;6245216;22;45313;-58
2023/01/16 15:34:12;;;;;;;;;1.00;1.00;;;;;-147.14;100.00;58812.66;6217774;22;46755;-58
2023/01/16 15:36:42;;;;;;;;;2.67;2.00;;;;;-147.14;100.00;58812.66;6245355;22;45302;-58
2023/01/16 15:39:11;;;;;;;;;1.67;1.67;;;;;-147.14;100.00;58812.66;6245045;22;45256;-58
2023/01/16 15:47:44;;;;;;;;;2.33;0.67;;;;;-147.14;100.00;58812.66;6221461;22;45377;-57
2023/01/16 15:50:30;;;;;;;;;3.33;3.00;;;;;-147.14;100.00;58812.66;6217370;22;45367;-57
2023/01/16 15:52:58;;;;;;;;;1.00;1.00;;;;;-147.14;100.00;58812.66;6218049;22;45440;-58
2023/01/16 15:55:29;;;;;;;;;4.33;2.00;;;;;-147.14;100.00;58812.66;6244017;22;45266;-58
2023/01/16 15:57:57;;;;;;;;;1.00;1.00;;;;;-147.14;100.00;58812.66;6216953;22;45377;-59
2023/01/16 16:00:29;;;;;;;;;2.00;2.00;;;;;-147.14;100.00;58812.66;6217123;22;45504;-56
2023/01/16 16:03:14;;;;;;;;;4.33;3.00;;;;;-147.14;100.00;58812.66;6244036;22;45296;-55
2023/01/16 16:05:40;;;;;;;;;1.67;1.00;;;;;-147.14;100.00;58812.66;6244549;22;46242;-57
2023/01/16 16:08:06;;;;;;;;;3.67;3.00;;;;;-147.14;100.00;58812.66;6216745;22;45214;-57
2023/01/16 16:13:18;;;;;;;;;3.00;2.00;;;;;-147.14;100.00;58812.66;6222576;22;45361;-56
2023/01/16 16:18:57;;;;;;;;;4.33;3.00;;;;;-147.14;100.00;58812.66;6244249;22;45288;-57
2023/01/16 16:21:25;;;;;;;;;2.67;2.33;;;;;-147.14;100.00;58812.66;6244656;22;45347;-57
2023/01/16 16:23:58;;;;;;;;;2.00;2.00;;;;;-147.14;100.00;58812.66;6238433;22;45339;-58
2023/01/16 16:26:24;;;;;;;;;4.00;2.00;;;;;-147.14;100.00;58812.66;6240221;22;46026;-59
2023/01/16 16:28:49;;;;;;;;;3.00;3.00;;;;;-147.14;100.00;58812.66;6216201;22;59602;-60
2023/01/16 16:31:25;;;;;;;;;3.00;3.00;;;;;-147.14;100.00;58812.66;6218424;22;59503;-59
2023/01/16 16:34:03;;;;;;;;;4.00;2.33;;;;;-147.14;100.00;58812.66;6245504;22;45621;-59
2023/01/16 16:36:28;;;;;;;;;4.00;3.00;;;;;-147.14;100.00;58812.66;6245829;22;46090;-59
2023/01/16 16:38:56;;;;;;;;;1.00;1.00;;;;;-147.14;100.00;58812.66;6243799;22;45308;-59
2023/01/16 16:44:23;;;;;;;;;2.00;2.00;;;;;-147.14;100.00;58812.66;6245267;22;45708;-59
2023/01/16 16:46:48;;;;;;;;;2.67;2.33;;;;;-147.14;100.00;58812.66;6245630;22;46115;-59
2023/01/16 16:49:14;;;;;;;;;2.00;2.00;;;;;-147.14;100.00;58812.66;6243447;22;65377;-59
2023/01/16 16:51:39;;;;;;;;;3.00;3.00;;;;;-147.14;100.00;58812.66;6245875;22;45272;-58
2023/01/16 16:54:08;;;;;;;;;2.00;2.00;;;;;-147.14;100.00;58812.66;6243100;22;52690;-59
2023/01/16 16:56:36;;;;;;;;;2.00;2.00;;;;;-147.14;100.00;58812.66;6217505;22;47094;-58
2023/01/16 16:59:02;;;;;;;;;2.00;2.00;;;;;-147.14;100.00;58812.66;6245485;22;45576;-59
2023/01/16 17:01:28;;;;;;;;;8.33;3.00;;;;;-147.14;100.00;58812.66;6244739;22;45209;-59
2023/01/16 17:03:55;;;;;;;;;7.67;4.00;;;;;-147.14;100.00;58812.66;6244965;22;45308;-59
2023/01/16 17:06:25;;;;;;;;;5.00;4.33;;;;;-147.14;100.00;58812.66;6243768;22;45935;-58
2023/01/16 17:08:51;;;;;;;;;3.67;3.00;;;;;-147.14;100.00;58812.66;6215093;22;45380;-58
2023/01/16 17:11:16;;;;;;;;;2.00;2.00;;;;;-147.14;100.00;58812.66;6245413;22;45183;-58
2023/01/16 17:13:42;;;;;;;;;3.33;3.33;;;;;-147.14;100.00;58812.66;6244831;22;45633;-59
2023/01/16 17:16:16;;;;;;;;;8.33;4.00;;;;;-147.14;100.00;58812.66;6243945;22;45253;-58
2023/01/16 17:18:41;;;;;;;;;2.00;2.00;;;;;-147.14;100.00;58812.66;6244322;22;45844;-59
2023/01/16 17:21:08;;;;;;;;;3.67;2.67;;;;;-147.14;100.00;58812.66;6218537;22;45362;-59
2023/01/16 17:23:33;;;;;;;;;4.33;3.67;;;;;-147.14;100.00;58812.66;6191876;22;62023;-59
2023/01/16 17:25:58;;;;;;;;;5.00;4.33;;;;;-147.14;100.00;58812.66;6217441;22;46655;-59
2023/01/16 17:28:25;;;;;;;;;4.67;4.67;;;;;-147.14;100.00;58812.66;6245455;22;62543;-59
2023/01/16 17:30:51;;;;;;;;;5.67;4.00;;;;;-147.14;100.00;58812.66;6245774;22;45283;-59
2023/01/16 17:33:18;;;;;;;;;8.00;7.67;;;;;-147.14;100.00;58812.66;6245520;22;45228;-59
2023/01/16 17:35:47;;;;;;;;;7.67;7.33;;;;;-147.14;100.00;58812.66;6218756;22;46292;-58
2023/01/16 17:38:13;;;;;;;;;6.33;4.67;;;;;-147.14;100.00;58812.66;6244277;22;45322;-59
2023/01/16 17:40:39;;;;;;;;;12.33;8.33;;;;;-147.14;100.00;58812.66;6243913;22;45370;-59
2023/01/16 17:45:53;;;;;;;;;8.00;7.00;;;;;-147.14;100.00;58812.66;6245760;22;45540;-58
2023/01/16 17:48:23;;;;;;;;;6.33;5.00;;;;;-147.14;100.00;58812.66;6218895;22;45300;-60
2023/01/16 17:50:49;;;;;;;;;2.67;2.33;;;;;-147.14;100.00;58812.66;6245043;22;45342;-58
2023/01/16 17:53:17;;;;;;;;;8.67;8.00;;;;;-147.14;100.00;58812.66;6217993;22;45387;-59
2023/01/16 17:55:50;;;;;;;;;6.00;6.00;;;;;-147.14;100.00;58812.66;6245012;22;45995;-60
2023/01/16 17:58:28;;;;;;;;;8.33;8.33;;;;;-147.14;100.00;58812.66;6245677;22;45354;-58
2023/01/16 18:01:01;;;;;;;;;8.33;5.00;;;;;-147.14;100.00;58812.66;6243192;22;45316;-59
2023/01/16 18:03:31;;;;;;;;;9.00;3.33;;;;;-147.14;100.00;58812.66;6241254;22;45426;-60
2023/01/16 18:06:01;;;;;;;;;4.67;3.00;;;;;-147.14;100.00;58812.66;6244501;22;46130;-59
2023/01/16 18:08:27;;;;;;;;;7.00;4.33;;;;;-147.14;100.00;58812.66;6242569;22;45343;-59
2023/01/16 18:10:52;;;;;;;;;5.67;5.67;;;;;-147.14;100.00;58812.66;6245034;22;45634;-59
2023/01/16 18:18:49;;;;;;;;;5.67;5.67;;;;;-147.14;100.00;58812.66;6244747;22;45305;-58
2023/01/16 18:23:59;;;;;;;;;7.00;7.00;;;;;-147.14;100.00;58812.66;6244336;22;45477;-58
2023/01/16 18:26:25;;;;;;;;;7.33;6.33;;;;;-147.14;100.00;58812.66;6244297;22;46275;-60
2023/01/16 18:28:51;;;;;;;;;8.00;8.00;;;;;-147.14;100.00;58812.66;6244528;22;45291;-58
2023/01/16 18:31:21;;;;;;;;;5.67;4.67;;;;;-147.14;100.00;58812.66;6245684;22;45302;-58
2023/01/16 18:33:52;;;;;;;;;8.67;6.33;;;;;-147.14;100.00;58812.66;6243544;22;45561;-58
2023/01/16 18:36:20;;;;;;;;;8.00;8.00;;;;;-147.14;100.00;58812.66;6244885;22;45966;-61
2023/01/16 19:03:28;;;;;;;;;8.00;8.00;;;;;-147.14;100.00;58812.66;6244831;22;45320;-59
2023/01/16 19:05:55;;;;;;;;;9.00;9.00;;;;;-147.14;100.00;58812.66;6242247;22;45292;-59
2023/01/16 19:08:23;;;;;;;;;16.00;10.33;;;;;-147.14;100.00;58812.66;6217000;22;45482;-58
2023/01/16 19:10:53;;;;;;;;;12.00;11.00;;;;;-147.14;100.00;58812.66;6244235;22;45205;-59
2023/01/16 19:13:19;;;;;;;;;12.33;10.33;;;;;-147.14;100.00;58812.66;6218340;22;45341;-59
2023/01/16 19:18:45;;;;;;;;;15.00;13.67;;;;;-147.14;100.00;58812.66;6177344;23;45994;-59
2023/01/16 19:21:10;;;;;;;;;10.00;9.67;;;;;-147.14;100.00;58812.66;6230367;22;64600;-59
2023/01/16 19:23:35;;;;;;;;;15.00;12.67;;;;;-147.14;100.00;58812.66;6244771;22;62111;-59
2023/01/16 19:26:03;;;;;;;;;13.33;12.00;;;;;-147.14;100.00;58812.66;6243166;22;60979;-59
2023/01/16 19:28:29;;;;;;;;;9.00;9.00;;;;;-147.14;100.00;58812.66;6246049;22;46280;-60
2023/01/16 19:30:55;;;;;;;;;14.33;10.33;;;;;-147.14;100.00;58812.66;6219062;22;45719;-59
2023/01/16 19:33:20;;;;;;;;;11.00;9.00;;;;;-147.14;100.00;58812.66;6244095;22;58586;-59
2023/01/16 19:35:45;;;;;;;;;8.67;7.00;;;;;-147.14;100.00;58812.66;6246456;22;45358;-60
2023/01/16 19:38:11;;;;;;;;;5.67;5.33;;;;;-147.14;100.00;58812.66;6243411;22;66456;-60
2023/01/16 19:40:36;;;;;;;;;8.00;5.00;;;;;-147.14;100.00;58812.66;6245243;22;65873;-59
2023/01/16 19:48:29;;;;;;;;;5.00;4.00;;;;;-147.14;100.00;58812.66;6244099;22;45509;-59
2023/01/16 19:50:55;;;;;;;;;7.33;5.33;;;;;-147.14;100.00;58812.66;6240394;22;45731;-58
2023/01/16 19:53:20;;;;;;;;;8.00;5.00;;;;;-147.14;100.00;58812.66;6244421;22;45350;-59